createdAt,value
2023-10-21T00:01:19.207Z,12.95
2023-10-21T00:03:45.850Z,12.98
2023-10-21T00:06:12.725Z,13.02
2023-10-21T00:08:39.243Z,13.06
2023-10-21T00:11:07.197Z,13.07
2023-10-21T00:13:34.130Z,13.03
2023-10-21T00:16:00.814Z,12.97
2023-10-21T00:18:27.693Z,12.92
2023-10-21T00:20:55.278Z,12.93
2023-10-21T00:23:22.976Z,12.90
2023-10-21T00:25:49.597Z,12.88
2023-10-21T00:28:16.130Z,12.84
2023-10-21T00:30:46.603Z,12.83
2023-10-21T00:33:14.873Z,12.85
2023-10-21T00:35:44.685Z,12.88
2023-10-21T00:38:11.201Z,12.87
2023-10-21T00:40:38.833Z,12.89
2023-10-21T00:43:05.879Z,12.82
2023-10-21T00:45:32.424Z,12.76
2023-10-21T00:47:59.105Z,12.80
2023-10-21T00:50:26.107Z,12.83
2023-10-21T00:52:52.627Z,12.81
2023-10-21T00:55:19.149Z,12.82
2023-10-21T00:57:45.985Z,12.79
2023-10-21T01:00:13.207Z,12.72
2023-10-21T01:02:41.075Z,12.73
2023-10-21T01:05:07.730Z,12.76
2023-10-21T01:07:35.940Z,12.74
2023-10-21T01:10:05.964Z,12.78
2023-10-21T01:12:32.796Z,12.84
2023-10-21T01:14:59.976Z,12.80
2023-10-21T01:17:26.504Z,12.86
2023-10-21T01:19:53.014Z,12.83
2023-10-21T01:22:19.470Z,12.82
2023-10-21T01:24:46.313Z,12.81
2023-10-21T01:27:12.794Z,12.79
2023-10-21T01:29:39.294Z,12.84
2023-10-21T01:32:06.192Z,12.84
2023-10-21T01:34:32.645Z,12.86
2023-10-21T01:37:00.476Z,12.86
2023-10-21T01:39:27.021Z,12.93
2023-10-21T01:41:53.577Z,12.94
2023-10-21T01:44:20.512Z,12.91
2023-10-21T01:46:47.063Z,12.93
2023-10-21T01:49:13.550Z,12.97
2023-10-21T01:51:39.981Z,12.89
2023-10-21T01:54:06.842Z,12.90
2023-10-21T01:56:33.574Z,12.92
2023-10-21T01:59:00.178Z,12.91
2023-10-21T02:01:26.662Z,12.89
2023-10-21T02:03:53.528Z,12.90
2023-10-21T02:06:20.210Z,12.88
2023-10-21T02:08:46.875Z,12.92
2023-10-21T02:11:13.369Z,12.88
2023-10-21T02:13:39.784Z,12.87
2023-10-21T02:16:10.652Z,12.88
2023-10-21T02:18:37.627Z,12.94
2023-10-21T02:21:07.839Z,12.97
2023-10-21T02:23:35.192Z,12.92
2023-10-21T02:26:06.391Z,12.92
2023-10-21T02:28:32.871Z,12.96
2023-10-21T02:31:02.876Z,12.97
2023-10-21T02:33:29.388Z,12.94
2023-10-21T02:35:56.719Z,12.99
2023-10-21T02:38:24.041Z,13.01
2023-10-21T02:40:50.502Z,13.07
2023-10-21T02:43:18.112Z,13.05
2023-10-21T02:45:44.731Z,13.05
2023-10-21T02:48:11.382Z,13.06
2023-10-21T02:50:38.057Z,13.05
2023-10-21T02:53:04.699Z,13.07
2023-10-21T02:55:31.203Z,13.07
2023-10-21T02:57:57.959Z,13.08
2023-10-21T03:00:24.622Z,13.12
2023-10-21T03:02:51.288Z,13.20
2023-10-21T03:05:19.092Z,13.00
2023-10-21T03:07:45.576Z,12.92
2023-10-21T03:10:12.095Z,13.05
2023-10-21T03:12:38.655Z,12.92
2023-10-21T03:15:07.748Z,12.86
2023-10-21T03:17:34.395Z,13.01
2023-10-21T03:20:00.964Z,12.91
2023-10-21T03:22:27.424Z,13.00
2023-10-21T03:24:53.882Z,12.99
2023-10-21T03:27:20.289Z,13.04
2023-10-21T03:29:46.805Z,13.04
2023-10-21T03:32:13.686Z,13.06
2023-10-21T03:34:40.138Z,13.00
2023-10-21T03:37:06.581Z,12.90
2023-10-21T03:39:33.337Z,12.91
2023-10-21T03:41:59.946Z,12.80
2023-10-21T03:44:26.518Z,12.69
2023-10-21T03:46:52.964Z,12.71
2023-10-21T03:49:19.427Z,12.66
2023-10-21T03:51:45.829Z,12.64
2023-10-21T03:54:12.352Z,12.58
2023-10-21T03:56:38.837Z,12.61
2023-10-21T03:59:05.332Z,12.59
2023-10-21T04:01:32.012Z,12.60
2023-10-21T04:03:58.719Z,12.57
2023-10-21T04:06:25.562Z,12.66
2023-10-21T04:08:52.057Z,12.60
2023-10-21T04:11:18.864Z,12.58
2023-10-21T04:13:45.357Z,12.58
2023-10-21T04:16:12.568Z,12.55
2023-10-21T04:18:39.076Z,12.60
2023-10-21T04:21:06.788Z,12.60
2023-10-21T04:23:33.312Z,12.61
2023-10-21T04:25:59.740Z,12.65
2023-10-21T04:28:26.377Z,12.69
2023-10-21T04:30:52.896Z,12.69
2023-10-21T04:33:19.483Z,12.73
2023-10-21T04:35:46.038Z,12.74
2023-10-21T04:38:12.504Z,12.71
2023-10-21T04:40:38.976Z,12.68
2023-10-21T04:43:05.560Z,12.63
2023-10-21T04:45:32.476Z,12.61
2023-10-21T04:47:59.014Z,12.64
2023-10-21T04:50:27.155Z,12.65
2023-10-21T04:52:54.939Z,12.65
2023-10-21T04:55:22.203Z,12.61
2023-10-21T04:57:48.820Z,12.59
2023-10-21T05:00:16.001Z,12.57
2023-10-21T05:02:43.033Z,12.64
2023-10-21T05:05:10.506Z,12.61
2023-10-21T05:07:37.184Z,12.60
2023-10-21T05:10:05.640Z,12.56
2023-10-21T05:12:32.500Z,12.56
2023-10-21T05:14:59.025Z,12.49
2023-10-21T05:17:25.570Z,12.46
2023-10-21T05:19:52.105Z,12.43
2023-10-21T05:22:18.561Z,12.41
2023-10-21T05:24:45.042Z,12.42
2023-10-21T05:27:11.646Z,12.30
2023-10-21T05:29:38.116Z,12.28
2023-10-21T05:32:04.907Z,12.35
2023-10-21T05:34:31.515Z,12.29
2023-10-21T05:36:58.026Z,12.34
2023-10-21T05:39:24.743Z,12.41
2023-10-21T05:41:51.381Z,12.43
2023-10-21T05:44:17.983Z,12.42
2023-10-21T05:46:44.779Z,12.42
2023-10-21T05:49:11.390Z,12.47
2023-10-21T05:51:37.829Z,12.52
2023-10-21T05:54:04.454Z,12.68
2023-10-21T05:56:30.971Z,12.73
2023-10-21T05:58:57.457Z,12.77
2023-10-21T06:01:23.955Z,12.78
2023-10-21T06:03:50.605Z,12.88
2023-10-21T06:06:20.711Z,12.88
2023-10-21T06:08:47.309Z,12.83
2023-10-21T06:11:13.791Z,12.84
2023-10-21T06:13:40.876Z,12.83
2023-10-21T06:16:07.946Z,12.83
2023-10-21T06:18:34.425Z,12.83
2023-10-21T06:21:00.969Z,12.86
2023-10-21T06:23:27.606Z,12.88
2023-10-21T06:25:54.112Z,12.92
2023-10-21T06:28:21.056Z,12.91
2023-10-21T06:30:47.571Z,12.98
2023-10-21T06:33:14.735Z,13.06
2023-10-21T06:35:41.270Z,13.01
2023-10-21T06:38:08.466Z,12.99
2023-10-21T06:40:49.892Z,13.02
2023-10-21T06:43:21.925Z,12.97
2023-10-21T06:45:48.513Z,12.97
2023-10-21T06:48:15.280Z,13.00
2023-10-21T06:50:42.001Z,13.02
2023-10-21T06:53:08.746Z,12.99
2023-10-21T06:55:45.831Z,13.05
2023-10-21T06:58:13.543Z,13.05
2023-10-21T07:00:40.570Z,13.14
2023-10-21T07:03:07.945Z,13.15
2023-10-21T07:05:36.277Z,13.15
2023-10-21T07:08:03.442Z,13.21
2023-10-21T07:10:31.807Z,13.15
2023-10-21T07:13:02.068Z,13.14
2023-10-21T07:15:34.574Z,13.13
2023-10-21T07:18:01.571Z,13.19
2023-10-21T07:20:28.421Z,13.10
2023-10-21T07:22:55.293Z,12.87
2023-10-21T07:25:22.490Z,12.63
2023-10-21T07:27:49.049Z,12.69
2023-10-21T07:30:16.579Z,12.86
2023-10-21T07:32:43.795Z,12.71
2023-10-21T07:35:10.603Z,12.65
2023-10-21T07:37:38.402Z,12.96
2023-10-21T07:40:07.000Z,12.89
2023-10-21T07:42:33.980Z,12.84
2023-10-21T07:45:00.743Z,12.84
2023-10-21T07:47:27.369Z,12.83
2023-10-21T07:49:56.195Z,12.86
2023-10-21T07:52:23.593Z,13.00
2023-10-21T07:54:50.113Z,12.94
2023-10-21T07:57:16.862Z,13.06
2023-10-21T07:59:44.246Z,13.14
2023-10-21T08:02:11.045Z,13.01
2023-10-21T08:04:37.862Z,13.18
2023-10-21T08:07:04.877Z,13.12
2023-10-21T08:09:31.383Z,13.25
2023-10-21T08:11:58.001Z,13.05
2023-10-21T08:14:24.633Z,13.03
2023-10-21T08:16:51.139Z,13.00
2023-10-21T08:19:17.755Z,13.08
2023-10-21T08:21:44.278Z,13.20
2023-10-21T08:24:10.953Z,12.94
2023-10-21T08:26:37.543Z,13.10
2023-10-21T08:29:04.365Z,12.89
2023-10-21T08:31:30.927Z,12.83
2023-10-21T08:33:57.647Z,13.03
2023-10-21T08:36:24.361Z,13.19
2023-10-21T08:39:11.256Z,13.29
2023-10-21T08:41:39.504Z,13.24
2023-10-21T08:44:07.900Z,13.08
2023-10-21T08:46:34.896Z,13.30
2023-10-21T08:49:05.975Z,13.34
2023-10-21T08:51:36.436Z,13.35
2023-10-21T08:54:04.755Z,13.36
2023-10-21T08:56:33.486Z,13.45
2023-10-21T08:59:01.898Z,13.29
2023-10-21T09:01:28.592Z,13.19
2023-10-21T09:03:56.676Z,13.13
2023-10-21T09:06:23.310Z,13.30
2023-10-21T09:08:49.923Z,13.27
2023-10-21T09:11:24.891Z,13.15
2023-10-21T09:13:53.610Z,13.25
2023-10-21T09:16:30.296Z,13.58
2023-10-21T09:19:08.004Z,13.45
2023-10-21T09:21:43.541Z,13.54
2023-10-21T09:24:12.738Z,13.28
2023-10-21T09:26:41.138Z,13.44
2023-10-21T09:29:12.915Z,13.59
2023-10-21T09:31:49.377Z,13.27
2023-10-21T09:34:36.325Z,13.59
2023-10-21T09:37:05.913Z,13.56
2023-10-21T09:39:35.746Z,13.50
2023-10-21T09:42:04.384Z,13.47
2023-10-21T09:44:32.078Z,13.20
2023-10-21T09:47:01.475Z,13.46
2023-10-21T09:49:31.053Z,13.56
2023-10-21T09:52:06.287Z,13.51
2023-10-21T09:54:48.791Z,13.64
2023-10-21T09:57:16.233Z,13.85
2023-10-21T09:59:47.371Z,13.82
2023-10-21T10:02:15.972Z,13.91
2023-10-21T10:04:43.751Z,13.74
2023-10-21T10:07:19.852Z,13.95
2023-10-21T10:09:56.537Z,14.02
2023-10-21T10:12:25.338Z,14.14
2023-10-21T10:14:54.955Z,14.13
2023-10-21T10:17:50.554Z,14.22
2023-10-21T10:20:20.694Z,14.21
2023-10-21T10:22:55.517Z,14.16
2023-10-21T10:25:44.183Z,14.28
2023-10-21T10:28:28.015Z,14.32
2023-10-21T10:30:57.612Z,14.31
2023-10-21T10:33:34.365Z,14.29
2023-10-21T10:36:07.873Z,14.38
2023-10-21T10:38:45.940Z,14.68
2023-10-21T10:41:16.804Z,15.08
2023-10-21T10:43:50.167Z,15.07
2023-10-21T10:46:18.956Z,15.21
2023-10-21T10:48:47.476Z,15.57
2023-10-21T10:51:16.386Z,16.18
2023-10-21T10:53:53.574Z,17.21
2023-10-21T10:56:21.071Z,17.75
2023-10-21T10:58:48.857Z,17.28
2023-10-21T11:01:26.521Z,16.24
2023-10-21T11:03:58.230Z,15.85
2023-10-21T11:06:30.330Z,15.75
2023-10-21T11:08:58.100Z,15.79
2023-10-21T11:11:24.793Z,16.13
2023-10-21T11:13:51.334Z,16.26
2023-10-21T11:16:19.309Z,16.07
2023-10-21T11:18:46.586Z,15.87
2023-10-21T11:21:13.227Z,16.00
2023-10-21T11:23:40.503Z,16.05
2023-10-21T11:26:09.173Z,15.94
2023-10-21T11:28:38.051Z,15.92
2023-10-21T11:31:07.126Z,16.60
2023-10-21T11:33:33.792Z,16.61
2023-10-21T11:36:02.097Z,16.48
2023-10-21T11:38:30.136Z,16.33
2023-10-21T11:40:57.413Z,16.69
2023-10-21T11:43:28.742Z,16.23
2023-10-21T11:45:56.731Z,15.93
2023-10-21T11:48:25.461Z,15.75
2023-10-21T11:50:52.697Z,15.61
2023-10-21T11:53:20.341Z,15.59
2023-10-21T11:55:53.121Z,15.72
2023-10-21T11:58:40.615Z,15.69
2023-10-21T12:01:31.958Z,15.87
2023-10-21T12:04:17.061Z,15.87
2023-10-21T12:07:02.201Z,15.50
2023-10-21T12:09:46.506Z,15.71
2023-10-21T12:12:31.874Z,18.38
2023-10-21T12:14:59.042Z,18.88
2023-10-21T12:17:25.520Z,18.73
2023-10-21T12:19:52.664Z,19.09
2023-10-21T12:22:25.833Z,18.41
2023-10-21T12:25:12.319Z,17.94
2023-10-21T12:27:41.748Z,17.47
2023-10-21T12:30:41.229Z,17.55
2023-10-21T12:33:26.280Z,17.49
2023-10-21T12:36:11.450Z,17.70
2023-10-21T12:38:42.335Z,17.76
2023-10-21T12:41:22.824Z,17.20
2023-10-21T12:43:50.266Z,17.41
2023-10-21T12:46:20.028Z,17.97
2023-10-21T12:49:06.804Z,18.12
2023-10-21T12:51:33.792Z,17.98
2023-10-21T12:54:13.579Z,17.76
2023-10-21T12:56:41.588Z,17.26
2023-10-21T12:59:08.111Z,17.51
2023-10-21T13:01:35.989Z,17.52
2023-10-21T13:04:05.675Z,17.16
2023-10-21T13:06:34.216Z,16.77
2023-10-21T13:09:00.725Z,16.61
2023-10-21T13:11:28.810Z,16.93
2023-10-21T13:13:56.199Z,16.97
2023-10-21T13:16:22.655Z,16.64
2023-10-21T13:18:49.583Z,16.53
2023-10-21T13:21:18.557Z,16.48
2023-10-21T13:23:45.307Z,16.35
2023-10-21T13:26:13.097Z,16.36
2023-10-21T13:28:39.730Z,16.90
2023-10-21T13:31:09.240Z,16.83
2023-10-21T13:33:36.487Z,16.62
2023-10-21T13:36:04.052Z,16.40
2023-10-21T13:38:30.796Z,15.94
2023-10-21T13:40:57.580Z,15.84
2023-10-21T13:43:26.327Z,16.04
2023-10-21T13:45:53.208Z,15.94
2023-10-21T13:48:20.731Z,16.07
2023-10-21T13:50:51.146Z,16.12
2023-10-21T13:53:18.540Z,16.17
2023-10-21T13:55:45.847Z,16.22
2023-10-21T13:58:13.991Z,15.96
2023-10-21T14:00:41.141Z,16.14
2023-10-21T14:03:16.607Z,16.21
2023-10-21T14:05:49.989Z,16.27
2023-10-21T14:08:18.558Z,16.19
2023-10-21T14:10:49.651Z,16.33
2023-10-21T14:13:22.120Z,16.64
2023-10-21T14:15:50.421Z,17.26
2023-10-21T14:18:17.985Z,16.98
2023-10-21T14:20:48.558Z,16.71
2023-10-21T14:23:16.338Z,16.48
2023-10-21T14:26:13.608Z,16.27
2023-10-21T14:28:40.172Z,16.62
2023-10-21T14:31:07.648Z,16.71
2023-10-21T14:33:35.930Z,16.34
2023-10-21T14:36:07.610Z,15.98
2023-10-21T14:38:35.652Z,16.06
2023-10-21T14:41:02.400Z,15.93
2023-10-21T14:43:28.849Z,16.40
2023-10-21T14:45:55.428Z,16.64
2023-10-21T14:48:22.048Z,16.59
2023-10-21T14:50:50.545Z,16.62
2023-10-21T14:53:18.054Z,16.54
2023-10-21T14:55:53.059Z,15.74
2023-10-21T14:58:25.553Z,15.92
2023-10-21T15:00:53.621Z,16.16
2023-10-21T15:03:21.885Z,16.22
2023-10-21T15:05:50.472Z,16.29
2023-10-21T15:08:27.698Z,16.02
2023-10-21T15:10:54.959Z,15.64
2023-10-21T15:13:29.736Z,15.82
2023-10-21T15:16:01.686Z,15.59
2023-10-21T15:18:28.728Z,15.22
2023-10-21T15:21:02.284Z,15.27
2023-10-21T15:23:29.599Z,15.53
2023-10-21T15:25:56.979Z,15.62
2023-10-21T15:28:23.447Z,15.69
2023-10-21T15:30:53.749Z,15.79
2023-10-21T15:33:21.018Z,15.37
2023-10-21T15:35:47.505Z,15.28
2023-10-21T15:38:14.375Z,15.40
2023-10-21T15:40:40.853Z,15.74
2023-10-21T15:43:07.318Z,15.84
2023-10-21T15:45:33.857Z,15.85
2023-10-21T15:48:00.832Z,15.65
2023-10-21T15:50:27.705Z,15.35
2023-10-21T15:52:54.291Z,15.24
2023-10-21T15:55:22.497Z,15.09
2023-10-21T15:57:50.141Z,14.92
2023-10-21T16:00:16.933Z,14.87
2023-10-21T16:02:43.777Z,14.72
2023-10-21T16:05:10.679Z,14.62
2023-10-21T16:07:53.995Z,14.56
2023-10-21T16:10:23.537Z,14.50
2023-10-21T16:12:50.012Z,14.08
2023-10-21T16:15:16.734Z,13.98
2023-10-21T16:17:43.462Z,13.96
2023-10-21T16:20:10.462Z,14.09
2023-10-21T16:22:38.622Z,14.21
2023-10-21T16:25:07.327Z,14.15
2023-10-21T16:27:33.926Z,14.06
2023-10-21T16:30:00.453Z,14.06
2023-10-21T16:32:26.977Z,14.10
2023-10-21T16:34:53.578Z,14.14
2023-10-21T16:37:20.038Z,14.18
2023-10-21T16:39:46.762Z,14.07
2023-10-21T16:42:13.362Z,14.12
2023-10-21T16:44:40.524Z,14.07
2023-10-21T16:47:06.966Z,14.03
2023-10-21T16:49:33.474Z,14.08
2023-10-21T16:51:59.958Z,14.07
2023-10-21T16:54:26.512Z,13.95
2023-10-21T16:56:52.935Z,13.89
2023-10-21T16:59:19.553Z,13.91
2023-10-21T17:01:47.740Z,13.79
2023-10-21T17:04:16.014Z,13.56
2023-10-21T17:06:42.713Z,13.53
2023-10-21T17:09:10.629Z,13.59
2023-10-21T17:11:37.578Z,13.54
2023-10-21T17:14:04.395Z,13.40
2023-10-21T17:16:31.491Z,13.52
2023-10-21T17:18:59.382Z,13.45
2023-10-21T17:21:26.087Z,13.38
2023-10-21T17:23:54.326Z,13.48
2023-10-21T17:26:22.053Z,13.38
2023-10-21T17:28:49.358Z,13.31
2023-10-21T17:31:16.112Z,13.09
2023-10-21T17:33:49.962Z,12.99
2023-10-21T17:36:17.511Z,12.89
2023-10-21T17:38:44.091Z,12.82
2023-10-21T17:41:11.006Z,12.89
2023-10-21T17:43:37.706Z,12.98
2023-10-21T17:46:05.600Z,12.86
2023-10-21T17:48:32.585Z,12.84
2023-10-21T17:50:59.402Z,12.97
2023-10-21T17:53:26.358Z,13.05
2023-10-21T17:55:52.840Z,13.15
2023-10-21T17:58:19.484Z,13.10
2023-10-21T18:00:46.039Z,13.06
2023-10-21T18:03:12.743Z,13.04
2023-10-21T18:05:39.715Z,13.07
2023-10-21T18:08:06.400Z,13.07
2023-10-21T18:10:32.961Z,13.06
2023-10-21T18:12:59.453Z,13.05
2023-10-21T18:15:26.148Z,13.10
2023-10-21T18:17:53.810Z,13.06
2023-10-21T18:20:20.311Z,13.05
2023-10-21T18:22:47.004Z,13.12
2023-10-21T18:25:13.682Z,13.10
2023-10-21T18:27:40.356Z,13.18
2023-10-21T18:30:07.447Z,13.13
2023-10-21T18:32:34.310Z,13.18
2023-10-21T18:35:00.732Z,13.24
2023-10-21T18:37:27.384Z,13.17
2023-10-21T18:39:54.096Z,13.32
2023-10-21T18:42:21.065Z,13.24
2023-10-21T18:44:47.678Z,13.24
2023-10-21T18:47:14.228Z,13.25
2023-10-21T18:49:40.926Z,13.28
2023-10-21T18:52:07.742Z,13.29
2023-10-21T18:54:34.296Z,13.28
2023-10-21T18:57:00.900Z,13.29
2023-10-21T18:59:27.457Z,13.26
2023-10-21T19:01:58.820Z,13.22
2023-10-21T19:04:25.732Z,13.33
2023-10-21T19:06:53.265Z,13.24
2023-10-21T19:09:20.652Z,13.23
2023-10-21T19:11:47.287Z,13.20
2023-10-21T19:14:13.955Z,13.15
2023-10-21T19:16:40.662Z,13.17
2023-10-21T19:19:07.306Z,13.15
2023-10-21T19:21:34.059Z,13.15
2023-10-21T19:24:00.722Z,13.12
2023-10-21T19:26:27.339Z,13.16
2023-10-21T19:28:53.918Z,13.08
2023-10-21T19:31:20.811Z,13.16
2023-10-21T19:33:47.683Z,13.11
2023-10-21T19:36:15.199Z,13.07
2023-10-21T19:38:42.539Z,13.00
2023-10-21T19:41:11.408Z,12.99
2023-10-21T19:43:38.623Z,13.00
2023-10-21T19:46:09.498Z,12.97
2023-10-21T19:48:39.510Z,13.01
2023-10-21T19:51:08.062Z,12.97
2023-10-21T19:53:35.260Z,13.04
2023-10-21T19:56:04.311Z,12.98
2023-10-21T19:58:31.232Z,13.04
2023-10-21T20:01:10.116Z,13.01
2023-10-21T20:03:38.104Z,12.98
2023-10-21T20:06:05.305Z,12.99
2023-10-21T20:08:32.623Z,12.91
2023-10-21T20:11:03.273Z,12.91
2023-10-21T20:13:31.531Z,12.80
2023-10-21T20:15:58.077Z,12.75
2023-10-21T20:18:24.646Z,12.70
2023-10-21T20:20:52.097Z,12.74
2023-10-21T20:23:18.775Z,12.71
2023-10-21T20:25:45.184Z,12.68
2023-10-21T20:28:11.713Z,12.62
2023-10-21T20:30:39.621Z,12.62
2023-10-21T20:33:06.453Z,12.52
2023-10-21T20:35:35.999Z,12.51
2023-10-21T20:38:05.171Z,12.54
2023-10-21T20:40:32.462Z,12.53
2023-10-21T20:42:59.172Z,12.53
2023-10-21T20:45:25.858Z,12.47
2023-10-21T20:47:52.515Z,12.61
2023-10-21T20:50:20.129Z,12.53
2023-10-21T20:52:47.850Z,12.61
2023-10-21T20:55:15.350Z,12.57
2023-10-21T20:57:42.364Z,12.65
2023-10-21T21:00:12.397Z,12.67
2023-10-21T21:02:42.155Z,12.63
2023-10-21T21:05:16.028Z,12.66
2023-10-21T21:07:52.711Z,12.71
2023-10-21T21:10:23.770Z,12.69
2023-10-21T21:12:52.291Z,12.73
2023-10-21T21:15:20.089Z,12.75
2023-10-21T21:17:47.472Z,12.81
2023-10-21T21:20:14.020Z,12.74
2023-10-21T21:22:40.780Z,12.77
2023-10-21T21:25:08.535Z,12.78
2023-10-21T21:27:35.629Z,12.74
2023-10-21T21:30:02.203Z,12.71
2023-10-21T21:32:30.677Z,12.83
2023-10-21T21:34:57.255Z,12.71
2023-10-21T21:37:24.521Z,12.72
2023-10-21T21:39:57.629Z,12.78
2023-10-21T21:42:24.769Z,12.85
2023-10-21T21:44:51.331Z,12.83
2023-10-21T21:47:17.974Z,12.84
2023-10-21T21:49:45.045Z,12.79
2023-10-21T21:52:11.791Z,12.79
2023-10-21T21:54:38.424Z,12.88
2023-10-21T21:57:05.254Z,12.81
2023-10-21T21:59:32.012Z,12.76
2023-10-21T22:01:58.535Z,12.72
2023-10-21T22:04:25.867Z,12.72
2023-10-21T22:06:53.003Z,12.76
2023-10-21T22:09:20.873Z,12.67
2023-10-21T22:11:48.964Z,12.69
2023-10-21T22:14:15.653Z,12.75
2023-10-21T22:16:42.832Z,12.67
2023-10-21T22:19:13.069Z,12.68
2023-10-21T22:21:39.875Z,12.63
2023-10-21T22:24:07.749Z,12.55
2023-10-21T22:26:45.468Z,12.57
2023-10-21T22:29:13.473Z,12.62
2023-10-21T22:31:40.198Z,12.61
2023-10-21T22:34:08.372Z,12.67
2023-10-21T22:36:34.946Z,12.74
2023-10-21T22:39:01.646Z,12.82
2023-10-21T22:41:29.591Z,12.74
2023-10-21T22:43:57.335Z,12.74
2023-10-21T22:46:25.031Z,12.78
2023-10-21T22:48:52.312Z,12.88
2023-10-21T22:51:19.219Z,12.84
2023-10-21T22:53:45.960Z,12.73
2023-10-21T22:56:12.614Z,12.80
2023-10-21T22:58:39.828Z,12.80
2023-10-21T23:01:14.444Z,12.76
2023-10-21T23:03:42.010Z,12.69
2023-10-21T23:06:08.968Z,12.67
2023-10-21T23:08:38.988Z,12.69
2023-10-21T23:11:06.937Z,12.66
2023-10-21T23:13:33.904Z,12.72
2023-10-21T23:16:00.696Z,12.73
2023-10-21T23:18:27.429Z,12.69
2023-10-21T23:20:56.198Z,12.61
2023-10-21T23:23:22.989Z,12.66
2023-10-21T23:25:49.868Z,12.61
2023-10-21T23:28:16.846Z,12.66
2023-10-21T23:30:43.374Z,12.69
2023-10-21T23:33:10.981Z,12.66
2023-10-21T23:35:38.320Z,12.71
2023-10-21T23:38:06.312Z,12.59
2023-10-21T23:40:34.012Z,12.64
2023-10-21T23:43:02.640Z,12.63
2023-10-21T23:45:29.510Z,12.74
2023-10-21T23:47:56.594Z,12.80
2023-10-21T23:50:24.114Z,12.69
2023-10-21T23:52:55.153Z,12.68
2023-10-21T23:55:22.245Z,12.69
2023-10-21T23:57:48.938Z,12.66
